sensor_id;sensor_type;location;lat;lon;timestamp;temperature;humidity
61916;DHT22;47868;51.326;6.550;2022-09-03T00:00:21;22.30;37.10
61916;DHT22;47868;51.326;6.550;2022-09-03T00:03:02;22.20;37.00
61916;DHT22;47868;51.326;6.550;2022-09-03T00:05:50;22.20;37.00
61916;DHT22;47868;51.326;6.550;2022-09-03T00:08:26;22.20;36.90
61916;DHT22;47868;51.326;6.550;2022-09-03T00:11:00;22.10;36.90
61916;DHT22;47868;51.326;6.550;2022-09-03T00:13:56;22.10;36.90
61916;DHT22;47868;51.326;6.550;2022-09-03T00:16:27;22.10;36.80
61916;DHT22;47868;51.326;6.550;2022-09-03T00:18:57;22.10;36.70
61916;DHT22;47868;51.326;6.550;2022-09-03T00:21:44;22.00;36.70
61916;DHT22;47868;51.326;6.550;2022-09-03T00:24:14;22.10;36.70
61916;DHT22;47868;51.326;6.550;2022-09-03T00:26:44;22.10;36.60
61916;DHT22;47868;51.326;6.550;2022-09-03T00:29:16;22.10;36.60
61916;DHT22;47868;51.326;6.550;2022-09-03T00:31:50;22.10;36.50
61916;DHT22;47868;51.326;6.550;2022-09-03T00:34:29;22.10;36.50
61916;DHT22;47868;51.326;6.550;2022-09-03T00:36:56;22.00;36.60
61916;DHT22;47868;51.326;6.550;2022-09-03T00:39:24;21.90;36.60
61916;DHT22;47868;51.326;6.550;2022-09-03T00:56:12;21.80;37.10
61916;DHT22;47868;51.326;6.550;2022-09-03T00:59:08;21.70;37.00
61916;DHT22;47868;51.326;6.550;2022-09-03T01:05:02;21.70;37.20
61916;DHT22;47868;51.326;6.550;2022-09-03T01:10:29;21.60;37.50
61916;DHT22;47868;51.326;6.550;2022-09-03T01:18:31;21.50;37.90
61916;DHT22;47868;51.326;6.550;2022-09-03T01:21:28;21.50;38.00
61916;DHT22;47868;51.326;6.550;2022-09-03T01:31:57;21.40;38.70
61916;DHT22;47868;51.326;6.550;2022-09-03T01:46:29;21.30;38.90
61916;DHT22;47868;51.326;6.550;2022-09-03T01:51:30;21.20;39.20
61916;DHT22;47868;51.326;6.550;2022-09-03T01:57:00;21.20;39.10
61916;DHT22;47868;51.326;6.550;2022-09-03T01:59:36;21.10;39.20
61916;DHT22;47868;51.326;6.550;2022-09-03T02:02:19;21.20;39.10
61916;DHT22;47868;51.326;6.550;2022-09-03T02:07:32;21.10;39.40
61916;DHT22;47868;51.326;6.550;2022-09-03T02:09:59;21.10;39.40
61916;DHT22;47868;51.326;6.550;2022-09-03T02:12:30;21.00;39.30
61916;DHT22;47868;51.326;6.550;2022-09-03T02:15:04;21.00;39.30
61916;DHT22;47868;51.326;6.550;2022-09-03T02:17:32;21.00;39.50
61916;DHT22;47868;51.326;6.550;2022-09-03T02:19:58;21.00;39.50
61916;DHT22;47868;51.326;6.550;2022-09-03T02:22:28;20.90;39.60
61916;DHT22;47868;51.326;6.550;2022-09-03T02:24:53;21.00;39.60
61916;DHT22;47868;51.326;6.550;2022-09-03T02:27:19;20.90;39.70
61916;DHT22;47868;51.326;6.550;2022-09-03T02:29:45;20.90;39.70
61916;DHT22;47868;51.326;6.550;2022-09-03T02:32:11;20.90;39.60
61916;DHT22;47868;51.326;6.550;2022-09-03T02:34:40;20.90;39.80
61916;DHT22;47868;51.326;6.550;2022-09-03T02:37:17;20.80;39.80
61916;DHT22;47868;51.326;6.550;2022-09-03T02:39:43;20.90;40.10
61916;DHT22;47868;51.326;6.550;2022-09-03T02:42:11;20.80;40.30
61916;DHT22;47868;51.326;6.550;2022-09-03T02:44:41;20.80;40.50
61916;DHT22;47868;51.326;6.550;2022-09-03T02:47:09;20.80;40.20
61916;DHT22;47868;51.326;6.550;2022-09-03T02:49:34;20.80;40.10
61916;DHT22;47868;51.326;6.550;2022-09-03T02:52:08;20.80;40.10
61916;DHT22;47868;51.326;6.550;2022-09-03T02:54:37;20.80;39.90
61916;DHT22;47868;51.326;6.550;2022-09-03T02:57:10;20.70;40.30
61916;DHT22;47868;51.326;6.550;2022-09-03T02:59:36;20.70;40.40
61916;DHT22;47868;51.326;6.550;2022-09-03T03:02:04;20.70;40.50
61916;DHT22;47868;51.326;6.550;2022-09-03T03:04:30;20.60;40.70
61916;DHT22;47868;51.326;6.550;2022-09-03T03:06:55;20.60;40.30
61916;DHT22;47868;51.326;6.550;2022-09-03T03:09:21;20.60;40.50
61916;DHT22;47868;51.326;6.550;2022-09-03T03:11:47;20.60;41.00
61916;DHT22;47868;51.326;6.550;2022-09-03T03:14:15;20.60;40.70
61916;DHT22;47868;51.326;6.550;2022-09-03T03:16:41;20.50;40.60
61916;DHT22;47868;51.326;6.550;2022-09-03T03:19:06;20.50;41.00
61916;DHT22;47868;51.326;6.550;2022-09-03T03:21:32;20.50;40.90
61916;DHT22;47868;51.326;6.550;2022-09-03T03:23:57;20.40;40.80
61916;DHT22;47868;51.326;6.550;2022-09-03T03:26:25;20.40;41.00
61916;DHT22;47868;51.326;6.550;2022-09-03T03:28:55;20.50;41.00
61916;DHT22;47868;51.326;6.550;2022-09-03T03:31:21;20.50;41.20
61916;DHT22;47868;51.326;6.550;2022-09-03T03:33:52;20.40;40.90
61916;DHT22;47868;51.326;6.550;2022-09-03T03:36:19;20.50;41.30
61916;DHT22;47868;51.326;6.550;2022-09-03T03:38:45;20.40;41.20
61916;DHT22;47868;51.326;6.550;2022-09-03T03:43:40;20.50;41.10
61916;DHT22;47868;51.326;6.550;2022-09-03T03:46:06;20.40;41.40
61916;DHT22;47868;51.326;6.550;2022-09-03T03:48:32;20.40;41.40
61916;DHT22;47868;51.326;6.550;2022-09-03T03:51:06;20.40;41.30
61916;DHT22;47868;51.326;6.550;2022-09-03T03:53:37;20.40;41.40
61916;DHT22;47868;51.326;6.550;2022-09-03T03:56:08;20.40;41.60
61916;DHT22;47868;51.326;6.550;2022-09-03T03:58:35;20.40;41.80
61916;DHT22;47868;51.326;6.550;2022-09-03T04:01:12;20.30;42.00
61916;DHT22;47868;51.326;6.550;2022-09-03T04:03:39;20.30;42.30
61916;DHT22;47868;51.326;6.550;2022-09-03T04:06:05;20.30;42.50
61916;DHT22;47868;51.326;6.550;2022-09-03T04:08:37;20.30;42.50
61916;DHT22;47868;51.326;6.550;2022-09-03T04:11:06;20.20;42.50
61916;DHT22;47868;51.326;6.550;2022-09-03T04:13:34;20.30;42.90
61916;DHT22;47868;51.326;6.550;2022-09-03T04:16:08;20.20;43.00
61916;DHT22;47868;51.326;6.550;2022-09-03T04:18:35;20.20;43.00
61916;DHT22;47868;51.326;6.550;2022-09-03T04:21:02;20.20;43.20
61916;DHT22;47868;51.326;6.550;2022-09-03T04:23:30;20.20;43.40
61916;DHT22;47868;51.326;6.550;2022-09-03T04:25:56;20.20;43.20
61916;DHT22;47868;51.326;6.550;2022-09-03T04:28:21;20.10;43.20
61916;DHT22;47868;51.326;6.550;2022-09-03T04:30:47;20.10;43.20
61916;DHT22;47868;51.326;6.550;2022-09-03T04:33:13;20.10;43.40
61916;DHT22;47868;51.326;6.550;2022-09-03T04:35:38;20.00;43.40
61916;DHT22;47868;51.326;6.550;2022-09-03T04:38:05;20.00;43.50
61916;DHT22;47868;51.326;6.550;2022-09-03T04:40:31;20.00;43.60
61916;DHT22;47868;51.326;6.550;2022-09-03T04:42:58;20.00;43.60
61916;DHT22;47868;51.326;6.550;2022-09-03T04:45:24;20.00;43.80
61916;DHT22;47868;51.326;6.550;2022-09-03T04:48:03;20.00;44.00
61916;DHT22;47868;51.326;6.550;2022-09-03T04:50:31;20.00;44.20
61916;DHT22;47868;51.326;6.550;2022-09-03T04:53:02;19.90;44.10
61916;DHT22;47868;51.326;6.550;2022-09-03T04:55:35;19.90;44.30
61916;DHT22;47868;51.326;6.550;2022-09-03T04:58:01;19.90;44.40
61916;DHT22;47868;51.326;6.550;2022-09-03T05:00:26;19.90;44.50
61916;DHT22;47868;51.326;6.550;2022-09-03T05:02:52;19.90;44.40
61916;DHT22;47868;51.326;6.550;2022-09-03T05:05:18;19.90;44.50
61916;DHT22;47868;51.326;6.550;2022-09-03T05:07:43;20.00;44.70
61916;DHT22;47868;51.326;6.550;2022-09-03T05:10:11;19.90;44.60
61916;DHT22;47868;51.326;6.550;2022-09-03T05:12:40;19.90;44.80
61916;DHT22;47868;51.326;6.550;2022-09-03T05:15:07;19.90;44.70
61916;DHT22;47868;51.326;6.550;2022-09-03T05:17:32;19.90;44.60
61916;DHT22;47868;51.326;6.550;2022-09-03T05:19:58;19.90;44.70
61916;DHT22;47868;51.326;6.550;2022-09-03T05:22:24;19.90;44.90
61916;DHT22;47868;51.326;6.550;2022-09-03T05:24:49;19.90;45.00
61916;DHT22;47868;51.326;6.550;2022-09-03T05:27:16;19.90;44.80
61916;DHT22;47868;51.326;6.550;2022-09-03T05:29:42;19.90;45.20
61916;DHT22;47868;51.326;6.550;2022-09-03T05:32:08;19.90;45.20
61916;DHT22;47868;51.326;6.550;2022-09-03T05:34:34;20.00;45.00
61916;DHT22;47868;51.326;6.550;2022-09-03T05:37:00;20.00;45.20
61916;DHT22;47868;51.326;6.550;2022-09-03T05:39:25;20.10;44.90
61916;DHT22;47868;51.326;6.550;2022-09-03T05:41:51;20.00;44.40
61916;DHT22;47868;51.326;6.550;2022-09-03T05:44:18;20.10;44.60
61916;DHT22;47868;51.326;6.550;2022-09-03T05:46:46;20.20;44.40
61916;DHT22;47868;51.326;6.550;2022-09-03T05:49:11;20.20;44.30
61916;DHT22;47868;51.326;6.550;2022-09-03T05:51:37;20.20;44.30
61916;DHT22;47868;51.326;6.550;2022-09-03T05:54:07;20.20;44.20
61916;DHT22;47868;51.326;6.550;2022-09-03T05:56:34;20.20;45.00
61916;DHT22;47868;51.326;6.550;2022-09-03T05:59:04;20.30;44.50
61916;DHT22;47868;51.326;6.550;2022-09-03T06:01:42;20.30;44.70
61916;DHT22;47868;51.326;6.550;2022-09-03T06:04:13;20.30;44.50
61916;DHT22;47868;51.326;6.550;2022-09-03T06:06:40;20.30;44.30
61916;DHT22;47868;51.326;6.550;2022-09-03T06:09:09;20.30;44.20
61916;DHT22;47868;51.326;6.550;2022-09-03T06:11:37;20.40;44.10
61916;DHT22;47868;51.326;6.550;2022-09-03T06:14:05;21.00;44.40
61916;DHT22;47868;51.326;6.550;2022-09-03T06:16:34;20.40;43.90
61916;DHT22;47868;51.326;6.550;2022-09-03T06:19:00;20.50;44.00
61916;DHT22;47868;51.326;6.550;2022-09-03T06:21:28;20.50;43.80
61916;DHT22;47868;51.326;6.550;2022-09-03T06:23:56;20.60;43.50
61916;DHT22;47868;51.326;6.550;2022-09-03T06:26:23;20.60;43.70
61916;DHT22;47868;51.326;6.550;2022-09-03T06:28:50;20.60;43.90
61916;DHT22;47868;51.326;6.550;2022-09-03T06:31:18;20.70;44.00
61916;DHT22;47868;51.326;6.550;2022-09-03T06:33:45;20.70;43.90
61916;DHT22;47868;51.326;6.550;2022-09-03T06:36:22;20.80;44.00
61916;DHT22;47868;51.326;6.550;2022-09-03T06:38:54;20.80;43.90
61916;DHT22;47868;51.326;6.550;2022-09-03T06:41:23;20.80;43.70
61916;DHT22;47868;51.326;6.550;2022-09-03T06:43:56;20.90;43.70
61916;DHT22;47868;51.326;6.550;2022-09-03T06:46:33;20.90;43.70
61916;DHT22;47868;51.326;6.550;2022-09-03T06:48:59;20.90;43.40
61916;DHT22;47868;51.326;6.550;2022-09-03T06:51:26;21.00;43.40
61916;DHT22;47868;51.326;6.550;2022-09-03T06:53:57;21.10;43.40
61916;DHT22;47868;51.326;6.550;2022-09-03T06:56:23;21.10;43.30
61916;DHT22;47868;51.326;6.550;2022-09-03T06:58:52;21.10;42.90
61916;DHT22;47868;51.326;6.550;2022-09-03T07:01:20;21.20;43.00
61916;DHT22;47868;51.326;6.550;2022-09-03T07:03:51;21.20;43.30
61916;DHT22;47868;51.326;6.550;2022-09-03T07:06:18;21.30;43.10
61916;DHT22;47868;51.326;6.550;2022-09-03T07:08:44;21.30;42.60
61916;DHT22;47868;51.326;6.550;2022-09-03T07:11:16;21.40;42.40
61916;DHT22;47868;51.326;6.550;2022-09-03T07:13:45;21.40;42.60
61916;DHT22;47868;51.326;6.550;2022-09-03T07:16:16;21.40;42.90
61916;DHT22;47868;51.326;6.550;2022-09-03T07:18:42;21.50;42.20
61916;DHT22;47868;51.326;6.550;2022-09-03T07:21:13;21.50;42.40
61916;DHT22;47868;51.326;6.550;2022-09-03T07:23:40;21.50;42.30
61916;DHT22;47868;51.326;6.550;2022-09-03T07:26:09;21.60;42.30
61916;DHT22;47868;51.326;6.550;2022-09-03T07:28:37;21.60;42.20
61916;DHT22;47868;51.326;6.550;2022-09-03T07:31:10;21.70;42.30
61916;DHT22;47868;51.326;6.550;2022-09-03T07:33:40;21.70;42.20
61916;DHT22;47868;51.326;6.550;2022-09-03T07:36:11;21.80;42.20
61916;DHT22;47868;51.326;6.550;2022-09-03T07:38:39;21.80;42.20
61916;DHT22;47868;51.326;6.550;2022-09-03T07:41:07;21.90;42.50
61916;DHT22;47868;51.326;6.550;2022-09-03T07:43:41;22.00;42.60
61916;DHT22;47868;51.326;6.550;2022-09-03T07:46:18;22.00;42.20
61916;DHT22;47868;51.326;6.550;2022-09-03T07:48:49;21.90;42.00
61916;DHT22;47868;51.326;6.550;2022-09-03T07:51:15;21.90;42.40
61916;DHT22;47868;51.326;6.550;2022-09-03T07:53:43;22.00;42.10
61916;DHT22;47868;51.326;6.550;2022-09-03T07:56:10;22.10;41.90
61916;DHT22;47868;51.326;6.550;2022-09-03T07:58:37;22.20;42.10
61916;DHT22;47868;51.326;6.550;2022-09-03T08:01:08;22.30;41.90
61916;DHT22;47868;51.326;6.550;2022-09-03T08:03:34;22.40;41.40
61916;DHT22;47868;51.326;6.550;2022-09-03T08:06:02;22.50;41.90
61916;DHT22;47868;51.326;6.550;2022-09-03T08:08:28;22.60;41.00
61916;DHT22;47868;51.326;6.550;2022-09-03T08:10:54;22.80;41.00
61916;DHT22;47868;51.326;6.550;2022-09-03T08:13:19;23.00;41.00
61916;DHT22;47868;51.326;6.550;2022-09-03T08:15:55;23.00;40.90
61916;DHT22;47868;51.326;6.550;2022-09-03T08:18:21;23.20;40.90
61916;DHT22;47868;51.326;6.550;2022-09-03T08:20:47;23.30;40.40
61916;DHT22;47868;51.326;6.550;2022-09-03T08:23:13;23.40;39.70
61916;DHT22;47868;51.326;6.550;2022-09-03T08:25:39;23.50;39.80
61916;DHT22;47868;51.326;6.550;2022-09-03T08:28:05;23.40;39.70
61916;DHT22;47868;51.326;6.550;2022-09-03T08:30:31;23.60;40.00
61916;DHT22;47868;51.326;6.550;2022-09-03T08:33:00;23.70;39.70
61916;DHT22;47868;51.326;6.550;2022-09-03T08:35:26;23.80;39.60
61916;DHT22;47868;51.326;6.550;2022-09-03T08:37:54;23.90;39.40
61916;DHT22;47868;51.326;6.550;2022-09-03T08:40:19;23.90;39.50
61916;DHT22;47868;51.326;6.550;2022-09-03T08:45:26;24.00;39.40
61916;DHT22;47868;51.326;6.550;2022-09-03T08:48:06;24.10;39.50
61916;DHT22;47868;51.326;6.550;2022-09-03T08:50:40;24.10;39.30
61916;DHT22;47868;51.326;6.550;2022-09-03T08:53:44;24.10;39.60
61916;DHT22;47868;51.326;6.550;2022-09-03T08:56:23;24.10;40.00
61916;DHT22;47868;51.326;6.550;2022-09-03T08:58:50;24.20;40.00
61916;DHT22;47868;51.326;6.550;2022-09-03T09:01:47;24.20;39.40
61916;DHT22;47868;51.326;6.550;2022-09-03T09:15:12;24.30;40.10
61916;DHT22;47868;51.326;6.550;2022-09-03T09:20:58;24.20;39.70
61916;DHT22;47868;51.326;6.550;2022-09-03T09:23:39;24.30;40.30
61916;DHT22;47868;51.326;6.550;2022-09-03T09:26:10;24.40;40.10
61916;DHT22;47868;51.326;6.550;2022-09-03T09:28:38;24.40;40.20
61916;DHT22;47868;51.326;6.550;2022-09-03T09:31:06;24.40;40.20
61916;DHT22;47868;51.326;6.550;2022-09-03T09:33:33;24.40;40.30
61916;DHT22;47868;51.326;6.550;2022-09-03T09:36:03;24.50;40.10
61916;DHT22;47868;51.326;6.550;2022-09-03T09:38:32;24.50;40.10
61916;DHT22;47868;51.326;6.550;2022-09-03T09:43:34;24.50;40.30
61916;DHT22;47868;51.326;6.550;2022-09-03T09:46:28;24.60;40.90
61916;DHT22;47868;51.326;6.550;2022-09-03T09:48:54;24.70;41.00
61916;DHT22;47868;51.326;6.550;2022-09-03T09:51:29;24.80;41.00
61916;DHT22;47868;51.326;6.550;2022-09-03T09:54:16;24.90;40.50
61916;DHT22;47868;51.326;6.550;2022-09-03T09:56:56;24.90;40.30
61916;DHT22;47868;51.326;6.550;2022-09-03T09:59:22;25.10;41.20
61916;DHT22;47868;51.326;6.550;2022-09-03T10:01:48;25.20;40.80
61916;DHT22;47868;51.326;6.550;2022-09-03T10:06:53;25.40;41.20
61916;DHT22;47868;51.326;6.550;2022-09-03T10:09:23;25.60;41.40
61916;DHT22;47868;51.326;6.550;2022-09-03T10:12:08;25.70;40.30
61916;DHT22;47868;51.326;6.550;2022-09-03T10:17:28;25.90;40.80
61916;DHT22;47868;51.326;6.550;2022-09-03T10:20:04;26.00;41.00
61916;DHT22;47868;51.326;6.550;2022-09-03T10:22:54;26.00;40.40
61916;DHT22;47868;51.326;6.550;2022-09-03T10:25:21;26.10;40.90
61916;DHT22;47868;51.326;6.550;2022-09-03T10:27:50;26.20;40.60
61916;DHT22;47868;51.326;6.550;2022-09-03T10:30:17;26.30;40.80
61916;DHT22;47868;51.326;6.550;2022-09-03T10:33:06;26.40;40.20
61916;DHT22;47868;51.326;6.550;2022-09-03T10:36:21;26.50;40.30
61916;DHT22;47868;51.326;6.550;2022-09-03T10:38:31;26.60;40.20
61916;DHT22;47868;51.326;6.550;2022-09-03T10:41:26;26.80;40.10
61916;DHT22;47868;51.326;6.550;2022-09-03T10:55:16;27.40;39.70
61916;DHT22;47868;51.326;6.550;2022-09-03T11:00:21;27.40;39.20
61916;DHT22;47868;51.326;6.550;2022-09-03T11:03:02;27.60;39.10
61916;DHT22;47868;51.326;6.550;2022-09-03T11:05:39;27.80;39.00
61916;DHT22;47868;51.326;6.550;2022-09-03T11:10:59;28.20;38.70
61916;DHT22;47868;51.326;6.550;2022-09-03T11:13:36;28.30;37.90
61916;DHT22;47868;51.326;6.550;2022-09-03T11:16:12;28.60;38.00
61916;DHT22;47868;51.326;6.550;2022-09-03T11:18:45;28.90;37.40
61916;DHT22;47868;51.326;6.550;2022-09-03T11:21:16;29.30;36.80
61916;DHT22;47868;51.326;6.550;2022-09-03T11:23:46;29.80;36.00
61916;DHT22;47868;51.326;6.550;2022-09-03T11:26:16;30.40;35.80
61916;DHT22;47868;51.326;6.550;2022-09-03T11:32:00;31.50;33.50
61916;DHT22;47868;51.326;6.550;2022-09-03T11:57:02;36.40;28.10
61916;DHT22;47868;51.326;6.550;2022-09-03T11:59:28;36.60;28.10
61916;DHT22;47868;51.326;6.550;2022-09-03T12:02:15;37.40;27.70
61916;DHT22;47868;51.326;6.550;2022-09-03T12:18:07;40.40;24.80
61916;DHT22;47868;51.326;6.550;2022-09-03T12:21:07;40.80;24.10
61916;DHT22;47868;51.326;6.550;2022-09-03T12:23:43;41.10;24.40
61916;DHT22;47868;51.326;6.550;2022-09-03T12:26:21;41.60;23.50
61916;DHT22;47868;51.326;6.550;2022-09-03T12:28:56;41.80;23.20
61916;DHT22;47868;51.326;6.550;2022-09-03T12:31:31;42.00;23.00
61916;DHT22;47868;51.326;6.550;2022-09-03T12:34:01;42.20;22.50
61916;DHT22;47868;51.326;6.550;2022-09-03T12:36:47;42.60;22.40
61916;DHT22;47868;51.326;6.550;2022-09-03T12:39:14;43.00;22.40
61916;DHT22;47868;51.326;6.550;2022-09-03T12:42:07;43.50;22.20
61916;DHT22;47868;51.326;6.550;2022-09-03T12:47:16;44.50;20.90
61916;DHT22;47868;51.326;6.550;2022-09-03T12:49:44;44.90;20.70
61916;DHT22;47868;51.326;6.550;2022-09-03T12:52:47;44.90;20.20
61916;DHT22;47868;51.326;6.550;2022-09-03T12:58:07;45.80;19.80
61916;DHT22;47868;51.326;6.550;2022-09-03T13:00:39;46.00;19.70
61916;DHT22;47868;51.326;6.550;2022-09-03T13:03:46;46.40;19.60
61916;DHT22;47868;51.326;6.550;2022-09-03T13:06:16;47.30;19.10
61916;DHT22;47868;51.326;6.550;2022-09-03T13:08:49;47.70;18.90
61916;DHT22;47868;51.326;6.550;2022-09-03T13:11:21;48.50;18.30
61916;DHT22;47868;51.326;6.550;2022-09-03T13:22:01;50.70;17.20
61916;DHT22;47868;51.326;6.550;2022-09-03T13:30:16;52.40;16.20
61916;DHT22;47868;51.326;6.550;2022-09-03T13:35:51;53.30;15.70
61916;DHT22;47868;51.326;6.550;2022-09-03T13:46:30;55.40;14.70
61916;DHT22;47868;51.326;6.550;2022-09-03T13:52:10;56.30;14.30
61916;DHT22;47868;51.326;6.550;2022-09-03T13:54:45;56.00;14.00
61916;DHT22;47868;51.326;6.550;2022-09-03T13:57:33;56.50;14.00
61916;DHT22;47868;51.326;6.550;2022-09-03T14:00:05;57.10;13.90
61916;DHT22;47868;51.326;6.550;2022-09-03T14:02:54;57.30;13.50
61916;DHT22;47868;51.326;6.550;2022-09-03T14:13:16;58.60;12.90
61916;DHT22;47868;51.326;6.550;2022-09-03T14:15:56;59.00;12.90
61916;DHT22;47868;51.326;6.550;2022-09-03T14:21:16;58.90;12.50
61916;DHT22;47868;51.326;6.550;2022-09-03T14:23:58;58.70;12.60
61916;DHT22;47868;51.326;6.550;2022-09-03T14:26:27;58.20;12.80
61916;DHT22;47868;51.326;6.550;2022-09-03T16:34:09;40.00;45.90
61916;DHT22;47868;51.326;6.550;2022-09-03T17:22:07;33.10;29.50
61916;DHT22;47868;51.326;6.550;2022-09-03T17:24:37;33.00;29.70
61916;DHT22;47868;51.326;6.550;2022-09-03T17:30:04;32.80;40.30
61916;DHT22;47868;51.326;6.550;2022-09-03T17:49:57;32.00;32.10
61916;DHT22;47868;51.326;6.550;2022-09-03T17:52:38;31.90;32.10
61916;DHT22;47868;51.326;6.550;2022-09-03T17:55:37;31.80;32.70
61916;DHT22;47868;51.326;6.550;2022-09-03T17:58:35;31.60;32.90
61916;DHT22;47868;51.326;6.550;2022-09-03T18:01:17;31.50;33.30
61916;DHT22;47868;51.326;6.550;2022-09-03T18:06:41;31.20;33.80
61916;DHT22;47868;51.326;6.550;2022-09-03T18:09:22;31.10;34.60
61916;DHT22;47868;51.326;6.550;2022-09-03T18:17:18;30.40;36.70
61916;DHT22;47868;51.326;6.550;2022-09-03T18:20:10;30.30;37.10
61916;DHT22;47868;51.326;6.550;2022-09-03T18:23:33;30.20;37.80
61916;DHT22;47868;51.326;6.550;2022-09-03T18:26:19;30.10;37.80
61916;DHT22;47868;51.326;6.550;2022-09-03T18:29:36;30.00;38.80
61916;DHT22;47868;51.326;6.550;2022-09-03T18:32:22;29.90;38.60
61916;DHT22;47868;51.326;6.550;2022-09-03T18:35:08;29.70;38.80
61916;DHT22;47868;51.326;6.550;2022-09-03T18:37:52;29.60;39.20
61916;DHT22;47868;51.326;6.550;2022-09-03T18:47:14;29.00;41.50
61916;DHT22;47868;51.326;6.550;2022-09-03T18:56:15;28.90;41.80
61916;DHT22;47868;51.326;6.550;2022-09-03T18:59:55;28.80;42.10
61916;DHT22;47868;51.326;6.550;2022-09-03T19:14:52;28.30;44.20
61916;DHT22;47868;51.326;6.550;2022-09-03T19:18:08;28.20;44.60
61916;DHT22;47868;51.326;6.550;2022-09-03T19:21:19;28.10;45.10
61916;DHT22;47868;51.326;6.550;2022-09-03T19:24:05;28.00;45.50
61916;DHT22;47868;51.326;6.550;2022-09-03T19:26:58;27.90;45.70
61916;DHT22;47868;51.326;6.550;2022-09-03T19:36:49;27.50;47.20
61916;DHT22;47868;51.326;6.550;2022-09-03T19:40:05;27.40;47.50
61916;DHT22;47868;51.326;6.550;2022-09-03T19:46:39;27.30;48.20
61916;DHT22;47868;51.326;6.550;2022-09-03T19:55:35;27.00;49.10
61916;DHT22;47868;51.326;6.550;2022-09-03T19:58:28;26.90;49.40
61916;DHT22;47868;51.326;6.550;2022-09-03T20:01:13;26.90;49.60
61916;DHT22;47868;51.326;6.550;2022-09-03T20:03:59;26.80;49.80
61916;DHT22;47868;51.326;6.550;2022-09-03T20:06:47;26.80;50.10
61916;DHT22;47868;51.326;6.550;2022-09-03T20:09:34;26.70;50.60
61916;DHT22;47868;51.326;6.550;2022-09-03T20:12:23;26.50;51.10
61916;DHT22;47868;51.326;6.550;2022-09-03T20:14:50;26.60;51.70
61916;DHT22;47868;51.326;6.550;2022-09-03T20:20:18;26.40;52.50
61916;DHT22;47868;51.326;6.550;2022-09-03T20:22:57;26.40;52.90
61916;DHT22;47868;51.326;6.550;2022-09-03T20:31:25;26.00;54.30
61916;DHT22;47868;51.326;6.550;2022-09-03T20:34:04;26.00;54.60
61916;DHT22;47868;51.326;6.550;2022-09-03T20:37:09;25.90;55.00
61916;DHT22;47868;51.326;6.550;2022-09-03T20:40:00;25.70;55.40
61916;DHT22;47868;51.326;6.550;2022-09-03T20:45:21;25.60;56.30
61916;DHT22;47868;51.326;6.550;2022-09-03T20:51:13;25.40;57.60
61916;DHT22;47868;51.326;6.550;2022-09-03T20:56:47;25.30;58.40
61916;DHT22;47868;51.326;6.550;2022-09-03T21:01:56;25.10;59.60
61916;DHT22;47868;51.326;6.550;2022-09-03T21:04:50;25.10;60.10
61916;DHT22;47868;51.326;6.550;2022-09-03T21:10:04;25.00;61.50
61916;DHT22;47868;51.326;6.550;2022-09-03T21:15:36;24.90;62.70
61916;DHT22;47868;51.326;6.550;2022-09-03T21:23:38;24.70;64.80
61916;DHT22;47868;51.326;6.550;2022-09-03T21:26:22;24.70;65.00
61916;DHT22;47868;51.326;6.550;2022-09-03T21:29:02;24.60;66.00
61916;DHT22;47868;51.326;6.550;2022-09-03T21:31:39;24.60;66.30
61916;DHT22;47868;51.326;6.550;2022-09-03T21:34:22;24.50;66.70
61916;DHT22;47868;51.326;6.550;2022-09-03T21:36:50;24.50;67.10
61916;DHT22;47868;51.326;6.550;2022-09-03T21:39:31;24.50;67.80
61916;DHT22;47868;51.326;6.550;2022-09-03T21:47:15;24.40;69.00
61916;DHT22;47868;51.326;6.550;2022-09-03T21:52:57;24.20;70.00
61916;DHT22;47868;51.326;6.550;2022-09-03T22:00:54;24.10;71.60
61916;DHT22;47868;51.326;6.550;2022-09-03T22:03:21;24.10;72.00
61916;DHT22;47868;51.326;6.550;2022-09-03T22:11:07;24.00;73.20
61916;DHT22;47868;51.326;6.550;2022-09-03T22:16:24;24.00;74.90
61916;DHT22;47868;51.326;6.550;2022-09-03T22:18:50;23.90;75.70
61916;DHT22;47868;51.326;6.550;2022-09-03T22:21:20;23.80;76.50
61916;DHT22;47868;51.326;6.550;2022-09-03T22:40:48;23.50;84.60
61916;DHT22;47868;51.326;6.550;2022-09-03T22:46:10;23.50;87.20
61916;DHT22;47868;51.326;6.550;2022-09-03T22:51:18;23.50;90.10
61916;DHT22;47868;51.326;6.550;2022-09-03T22:53:54;23.40;91.00
61916;DHT22;47868;51.326;6.550;2022-09-03T22:56:23;23.30;91.90
61916;DHT22;47868;51.326;6.550;2022-09-03T22:59:06;23.30;92.50
61916;DHT22;47868;51.326;6.550;2022-09-03T23:04:35;23.20;94.30
61916;DHT22;47868;51.326;6.550;2022-09-03T23:07:16;23.30;95.20
61916;DHT22;47868;51.326;6.550;2022-09-03T23:09:48;23.20;96.00
61916;DHT22;47868;51.326;6.550;2022-09-03T23:12:36;23.20;96.70
61916;DHT22;47868;51.326;6.550;2022-09-03T23:15:04;23.10;97.60
61916;DHT22;47868;51.326;6.550;2022-09-03T23:20:29;23.00;99.10
61916;DHT22;47868;51.326;6.550;2022-09-03T23:23:20;23.00;99.80
61916;DHT22;47868;51.326;6.550;2022-09-03T23:26:07;23.00;99.90
61916;DHT22;47868;51.326;6.550;2022-09-03T23:28:41;22.90;99.90
61916;DHT22;47868;51.326;6.550;2022-09-03T23:31:23;22.90;99.90
61916;DHT22;47868;51.326;6.550;2022-09-03T23:33:50;22.90;99.90
61916;DHT22;47868;51.326;6.550;2022-09-03T23:36:38;22.90;99.90
61916;DHT22;47868;51.326;6.550;2022-09-03T23:50:11;22.80;99.90
